createdAt,value
2023-01-05T00:02:04.915Z,96526.78
2023-01-05T00:04:31.448Z,96517.78
2023-01-05T00:06:57.947Z,96518.03
2023-01-05T00:09:24.527Z,96511.41
2023-01-05T00:12:09.486Z,96512.16
2023-01-05T00:14:54.356Z,96500.56
2023-01-05T00:17:40.731Z,96489.16
2023-01-05T00:20:29.119Z,96493.72
2023-01-05T00:22:55.642Z,96473.09
2023-01-05T00:25:23.565Z,96475.28
2023-01-05T00:27:51.882Z,96471.78
2023-01-05T00:30:19.820Z,96474.28
2023-01-05T00:32:46.613Z,96472.28
2023-01-05T00:35:14.012Z,96470.97
2023-01-05T00:37:40.643Z,96465.31
2023-01-05T00:40:09.075Z,96472.13
2023-01-05T00:42:35.624Z,96475.81
2023-01-05T00:45:02.242Z,96491.88
2023-01-05T00:47:28.792Z,96507.78
2023-01-05T00:49:55.334Z,96507.41
2023-01-05T00:52:21.884Z,96495.94
2023-01-05T00:54:48.371Z,96488.72
2023-01-05T00:57:15.169Z,96480.09
2023-01-05T00:59:41.739Z,96473.16
2023-01-05T01:02:08.469Z,96485.34
2023-01-05T01:04:35.384Z,96483.09
2023-01-05T01:07:02.440Z,96491.28
2023-01-05T01:09:29.449Z,96486.97
2023-01-05T01:11:55.948Z,96487.13
2023-01-05T01:14:22.899Z,96498.81
2023-01-05T01:16:49.439Z,96492.59
2023-01-05T01:19:17.293Z,96480.38
2023-01-05T01:21:44.025Z,96483.00
2023-01-05T01:24:15.655Z,96478.94
2023-01-05T01:26:42.186Z,96485.63
2023-01-05T01:29:08.686Z,96481.31
2023-01-05T01:31:35.785Z,96466.22
2023-01-05T01:34:02.269Z,96448.53
2023-01-05T01:36:28.773Z,96443.53
2023-01-05T01:38:55.362Z,96459.44
2023-01-05T01:41:21.853Z,96451.06
2023-01-05T01:43:49.920Z,96440.53
2023-01-05T01:46:17.346Z,96440.44
2023-01-05T01:48:51.675Z,96420.56
2023-01-05T01:51:21.256Z,96431.69
2023-01-05T01:53:49.693Z,96418.41
2023-01-05T01:56:17.684Z,96404.75
2023-01-05T01:58:44.573Z,96412.41
2023-01-05T02:04:33.753Z,96399.72
2023-01-05T02:07:01.839Z,96403.06
2023-01-05T02:09:28.779Z,96394.19
2023-01-05T02:12:13.769Z,96394.31
2023-01-05T02:14:40.305Z,96397.09
2023-01-05T02:17:26.041Z,96387.03
2023-01-05T02:19:52.558Z,96388.25
2023-01-05T02:22:27.189Z,96384.13
2023-01-05T02:25:12.228Z,96373.03
2023-01-05T02:27:57.151Z,96366.91
2023-01-05T02:30:42.503Z,96360.97
2023-01-05T02:33:27.860Z,96367.63
2023-01-05T02:36:03.114Z,96380.31
2023-01-05T02:38:37.506Z,96364.28
2023-01-05T02:41:08.096Z,96363.81
2023-01-05T02:43:34.705Z,96359.75
2023-01-05T02:46:01.291Z,96355.41
2023-01-05T02:48:27.914Z,96366.91
2023-01-05T02:51:01.121Z,96359.84
2023-01-05T02:53:39.346Z,96372.63
2023-01-05T02:56:26.876Z,96370.22
2023-01-05T02:58:57.167Z,96369.38
2023-01-05T03:01:29.956Z,96362.22
2023-01-05T03:03:56.560Z,96353.00
2023-01-05T03:06:28.813Z,96352.31
2023-01-05T03:08:57.389Z,96353.00
2023-01-05T03:11:45.723Z,96348.25
2023-01-05T03:14:31.160Z,96335.56
2023-01-05T03:16:58.831Z,96328.50
2023-01-05T03:19:39.993Z,96339.16
2023-01-05T03:22:36.696Z,96331.50
2023-01-05T03:25:22.239Z,96339.06
2023-01-05T03:28:07.876Z,96328.66
2023-01-05T03:31:00.758Z,96322.31
2023-01-05T03:33:55.141Z,96326.13
2023-01-05T03:36:23.749Z,96317.97
2023-01-05T03:38:51.617Z,96304.44
2023-01-05T03:41:19.629Z,96303.97
2023-01-05T03:43:46.892Z,96311.66
2023-01-05T03:46:19.127Z,96297.38
2023-01-05T03:48:45.784Z,96302.28
2023-01-05T03:51:13.330Z,96296.28
2023-01-05T03:53:39.848Z,96300.97
2023-01-05T03:56:06.538Z,96294.28
2023-01-05T03:58:33.097Z,96282.41
2023-01-05T04:00:59.634Z,96278.13
2023-01-05T04:03:31.451Z,96276.84
2023-01-05T04:05:58.631Z,96281.25
2023-01-05T04:08:25.162Z,96276.84
2023-01-05T04:10:52.447Z,96276.84
2023-01-05T04:13:19.250Z,96273.81
2023-01-05T04:15:45.852Z,96268.56
2023-01-05T04:18:12.442Z,96272.88
2023-01-05T04:20:38.975Z,96273.22
2023-01-05T04:23:05.485Z,96273.44
2023-01-05T04:25:32.081Z,96271.84
2023-01-05T04:27:59.098Z,96272.38
2023-01-05T04:30:25.638Z,96281.69
2023-01-05T04:32:52.169Z,96275.72
2023-01-05T04:35:18.637Z,96269.84
2023-01-05T04:37:46.224Z,96274.78
2023-01-05T04:40:12.766Z,96261.88
2023-01-05T04:42:39.267Z,96270.72
2023-01-05T04:45:05.995Z,96266.44
2023-01-05T04:47:32.517Z,96259.03
2023-01-05T04:49:59.004Z,96256.97
2023-01-05T04:52:25.506Z,96267.38
2023-01-05T04:54:52.032Z,96276.25
2023-01-05T04:57:19.342Z,96274.19
2023-01-05T04:59:45.868Z,96258.41
2023-01-05T05:02:12.473Z,96251.34
2023-01-05T05:04:39.073Z,96250.41
2023-01-05T05:07:05.605Z,96245.75
2023-01-05T05:09:32.095Z,96242.53
2023-01-05T05:11:58.585Z,96242.00
2023-01-05T05:14:25.095Z,96246.53
2023-01-05T05:16:51.575Z,96237.69
2023-01-05T05:19:18.115Z,96230.75
2023-01-05T05:21:44.668Z,96228.25
2023-01-05T05:24:11.251Z,96226.81
2023-01-05T05:26:37.775Z,96226.69
2023-01-05T05:29:04.310Z,96229.53
2023-01-05T05:31:30.994Z,96214.44
2023-01-05T05:33:57.676Z,96227.47
2023-01-05T05:36:24.158Z,96220.38
2023-01-05T05:38:50.757Z,96212.47
2023-01-05T05:41:17.233Z,96210.19
2023-01-05T05:43:43.801Z,96211.78
2023-01-05T05:46:10.417Z,96210.59
2023-01-05T05:48:37.004Z,96206.88
2023-01-05T05:51:03.640Z,96200.03
2023-01-05T05:53:30.188Z,96191.16
2023-01-05T05:55:56.723Z,96193.09
2023-01-05T05:58:23.354Z,96202.06
2023-01-05T06:00:49.851Z,96198.97
2023-01-05T06:03:16.491Z,96191.25
2023-01-05T06:05:44.310Z,96201.06
2023-01-05T06:08:10.882Z,96201.34
2023-01-05T06:10:37.433Z,96209.59
2023-01-05T06:13:04.580Z,96209.59
2023-01-05T06:15:31.113Z,96212.00
2023-01-05T06:17:57.659Z,96205.88
2023-01-05T06:20:24.324Z,96219.16
2023-01-05T06:22:50.843Z,96199.66
2023-01-05T06:25:17.419Z,96210.84
2023-01-05T06:27:43.989Z,96215.78
2023-01-05T06:30:10.701Z,96215.53
2023-01-05T06:32:37.409Z,96227.16
2023-01-05T06:35:03.985Z,96212.88
2023-01-05T06:37:30.562Z,96210.69
2023-01-05T06:39:57.119Z,96215.38
2023-01-05T06:42:24.068Z,96206.41
2023-01-05T06:44:50.706Z,96202.34
2023-01-05T06:47:17.420Z,96193.84
2023-01-05T06:49:44.007Z,96201.66
2023-01-05T06:52:15.967Z,96210.91
2023-01-05T06:54:43.291Z,96200.50
2023-01-05T06:57:09.876Z,96195.81
2023-01-05T06:59:36.417Z,96197.63
2023-01-05T07:02:02.952Z,96190.28
2023-01-05T07:04:29.544Z,96190.38
2023-01-05T07:06:56.152Z,96188.69
2023-01-05T07:09:22.663Z,96192.03
2023-01-05T07:11:49.255Z,96191.66
2023-01-05T07:14:16.154Z,96187.41
2023-01-05T07:16:42.752Z,96190.78
2023-01-05T07:19:10.223Z,96193.41
2023-01-05T07:21:36.729Z,96184.41
2023-01-05T07:24:03.833Z,96202.00
2023-01-05T07:26:30.347Z,96188.59
2023-01-05T07:28:58.624Z,96189.47
2023-01-05T07:31:25.180Z,96199.53
2023-01-05T07:33:51.754Z,96207.63
2023-01-05T07:36:18.318Z,96198.34
2023-01-05T07:38:44.831Z,96203.56
2023-01-05T07:41:11.470Z,96205.47
2023-01-05T07:43:37.983Z,96210.88
2023-01-05T07:46:05.032Z,96208.25
2023-01-05T07:48:31.601Z,96213.53
2023-01-05T07:51:01.876Z,96210.03
2023-01-05T07:53:29.876Z,96226.00
2023-01-05T07:56:00.526Z,96212.34
2023-01-05T07:58:27.767Z,96209.06
2023-01-05T08:00:54.582Z,96215.84
2023-01-05T08:03:21.629Z,96216.06
2023-01-05T08:05:48.155Z,96208.88
2023-01-05T08:08:19.119Z,96212.66
2023-01-05T08:10:48.870Z,96209.75
2023-01-05T08:13:33.990Z,96209.28
2023-01-05T08:16:00.826Z,96212.03
2023-01-05T08:18:28.059Z,96208.31
2023-01-05T08:20:58.993Z,96204.03
2023-01-05T08:23:27.572Z,96205.19
2023-01-05T08:25:55.187Z,96209.38
2023-01-05T08:28:22.160Z,96219.19
2023-01-05T08:30:48.665Z,96223.28
2023-01-05T08:33:15.236Z,96215.63
2023-01-05T08:35:42.484Z,96204.91
2023-01-05T08:38:09.043Z,96210.06
2023-01-05T08:40:36.390Z,96220.78
2023-01-05T08:43:02.865Z,96205.22
2023-01-05T08:45:30.064Z,96205.75
2023-01-05T08:47:56.651Z,96213.13
2023-01-05T08:50:23.217Z,96221.34
2023-01-05T08:52:49.802Z,96224.84
2023-01-05T08:55:16.434Z,96220.75
2023-01-05T08:57:43.184Z,96216.72
2023-01-05T09:00:10.204Z,96223.06
2023-01-05T09:02:36.982Z,96230.59
2023-01-05T09:05:03.799Z,96225.81
2023-01-05T09:07:30.319Z,96226.63
2023-01-05T09:09:56.841Z,96216.72
2023-01-05T09:12:25.775Z,96221.41
2023-01-05T09:14:55.761Z,96216.25
2023-01-05T09:17:22.292Z,96225.59
2023-01-05T09:19:48.848Z,96230.16
2023-01-05T09:22:15.339Z,96231.53
2023-01-05T09:24:41.891Z,96224.38
2023-01-05T09:27:08.397Z,96225.88
2023-01-05T09:29:34.974Z,96226.50
2023-01-05T09:32:01.497Z,96228.34
2023-01-05T09:34:28.335Z,96222.53
2023-01-05T09:36:54.865Z,96222.25
2023-01-05T09:39:21.565Z,96227.66
2023-01-05T09:41:54.081Z,96217.34
2023-01-05T09:44:29.615Z,96210.00
2023-01-05T09:46:57.538Z,96212.94
2023-01-05T09:49:25.015Z,96216.75
2023-01-05T09:51:54.687Z,96210.97
2023-01-05T09:54:28.303Z,96210.97
2023-01-05T09:57:11.259Z,96206.34
2023-01-05T09:59:49.243Z,96189.78
2023-01-05T10:02:30.891Z,96201.91
2023-01-05T10:04:59.174Z,96190.13
2023-01-05T10:07:31.533Z,96188.88
2023-01-05T10:10:00.400Z,96181.19
2023-01-05T10:13:07.014Z,96185.69
2023-01-05T10:15:40.230Z,96184.97
2023-01-05T10:18:11.414Z,96172.41
2023-01-05T10:20:44.765Z,96169.75
2023-01-05T10:23:17.116Z,96171.78
2023-01-05T10:26:03.837Z,96174.91
2023-01-05T10:28:40.192Z,96165.59
2023-01-05T10:31:19.393Z,96155.78
2023-01-05T10:33:52.802Z,96143.47
2023-01-05T10:37:06.712Z,96143.41
2023-01-05T10:39:25.844Z,96153.34
2023-01-05T10:42:02.555Z,96143.66
2023-01-05T10:44:32.072Z,96147.41
2023-01-05T10:46:58.989Z,96147.91
2023-01-05T10:49:26.872Z,96146.50
2023-01-05T10:51:56.995Z,96130.41
2023-01-05T10:54:36.119Z,96134.69
2023-01-05T10:57:21.208Z,96129.09
2023-01-05T11:00:02.958Z,96123.13
2023-01-05T11:02:31.725Z,96121.94
2023-01-05T11:05:03.025Z,96127.34
2023-01-05T11:07:29.625Z,96119.78
2023-01-05T11:09:56.286Z,96109.28
2023-01-05T11:12:23.945Z,96091.47
2023-01-05T11:14:58.059Z,96100.19
2023-01-05T11:17:26.515Z,96107.09
2023-01-05T11:19:54.704Z,96110.22
2023-01-05T11:22:36.653Z,96117.28
2023-01-05T11:25:13.290Z,96105.16
2023-01-05T11:27:40.480Z,96097.69
2023-01-05T11:30:13.189Z,96108.06
2023-01-05T11:32:40.715Z,96112.47
2023-01-05T11:35:17.312Z,96110.94
2023-01-05T11:37:45.250Z,96130.28
2023-01-05T11:40:19.195Z,96115.91
2023-01-05T11:42:45.800Z,96081.88
2023-01-05T11:45:23.128Z,96091.09
2023-01-05T11:47:55.023Z,96099.88
2023-01-05T11:50:26.529Z,96090.72
2023-01-05T11:53:00.658Z,96095.59
2023-01-05T11:55:38.364Z,96082.41
2023-01-05T11:58:17.926Z,96078.97
2023-01-05T12:00:47.552Z,96087.94
2023-01-05T12:03:23.135Z,96072.63
2023-01-05T12:05:55.985Z,96073.50
2023-01-05T12:08:33.201Z,96071.63
2023-01-05T12:11:20.057Z,96060.78
2023-01-05T12:13:49.633Z,96074.69
2023-01-05T12:16:16.228Z,96062.78
2023-01-05T12:18:54.145Z,96081.31
2023-01-05T12:21:24.939Z,96075.22
2023-01-05T12:24:00.488Z,96073.22
2023-01-05T12:26:32.971Z,96076.38
2023-01-05T12:30:32.974Z,96074.31
2023-01-05T12:34:56.770Z,96067.81
2023-01-05T12:37:26.317Z,96062.72
2023-01-05T12:40:05.629Z,96059.78
2023-01-05T12:42:35.075Z,96065.63
2023-01-05T12:45:20.110Z,96063.22
2023-01-05T12:47:46.608Z,96065.31
2023-01-05T12:50:20.631Z,96064.47
2023-01-05T12:52:49.915Z,96064.63
2023-01-05T12:55:26.481Z,96064.28
2023-01-05T12:57:58.315Z,96061.16
2023-01-05T13:00:26.359Z,96076.94
2023-01-05T13:02:59.315Z,96064.72
2023-01-05T13:05:25.835Z,96070.59
2023-01-05T13:07:54.719Z,96063.09
2023-01-05T13:10:24.216Z,96061.91
2023-01-05T13:12:53.698Z,96058.06
2023-01-05T13:15:40.521Z,96065.38
2023-01-05T13:18:07.778Z,96076.25
2023-01-05T13:20:41.092Z,96066.38
2023-01-05T13:23:30.693Z,96069.88
2023-01-05T13:26:07.224Z,96069.00
2023-01-05T13:28:35.061Z,96090.19
2023-01-05T13:31:27.903Z,96087.69
2023-01-05T13:33:55.477Z,96089.16
2023-01-05T13:36:54.337Z,96084.38
2023-01-05T13:39:33.671Z,96084.38
2023-01-05T13:42:00.845Z,96108.66
2023-01-05T13:44:40.692Z,96095.88
2023-01-05T13:47:23.779Z,96101.38
2023-01-05T13:50:23.199Z,96116.22
2023-01-05T13:53:08.499Z,96124.63
2023-01-05T13:55:37.747Z,96129.25
2023-01-05T13:58:05.701Z,96141.41
2023-01-05T14:00:38.071Z,96156.91
2023-01-05T14:03:18.827Z,96180.09
2023-01-05T14:05:45.289Z,96166.72
2023-01-05T14:08:18.676Z,96187.66
2023-01-05T14:11:05.096Z,96192.63
2023-01-05T14:13:43.854Z,96188.75
2023-01-05T14:16:29.113Z,96188.44
2023-01-05T14:19:02.025Z,96188.88
2023-01-05T14:21:47.344Z,96181.66
2023-01-05T14:24:31.166Z,96186.22
2023-01-05T14:27:08.391Z,96191.16
2023-01-05T14:29:44.058Z,96206.84
2023-01-05T14:32:21.072Z,96207.16
2023-01-05T14:34:53.021Z,96202.69
2023-01-05T14:37:45.885Z,96205.03
2023-01-05T14:40:30.830Z,96216.88
2023-01-05T14:42:57.590Z,96208.56
2023-01-05T14:45:27.134Z,96213.84
2023-01-05T14:47:57.923Z,96209.88
2023-01-05T14:50:38.687Z,96207.19
2023-01-05T14:53:05.179Z,96202.84
2023-01-05T14:55:39.192Z,96200.91
2023-01-05T14:58:12.046Z,96203.81
2023-01-05T15:00:57.655Z,96206.38
2023-01-05T15:03:30.984Z,96205.91
2023-01-05T15:06:06.711Z,96204.63
2023-01-05T15:08:35.985Z,96210.97
2023-01-05T15:11:10.101Z,96217.63
2023-01-05T15:13:36.647Z,96215.47
2023-01-05T15:16:09.857Z,96207.81
2023-01-05T15:18:42.557Z,96223.16
2023-01-05T15:21:18.261Z,96229.84
2023-01-05T15:24:05.173Z,96231.34
2023-01-05T15:26:37.830Z,96221.69
2023-01-05T15:29:04.295Z,96230.84
2023-01-05T15:31:30.866Z,96230.50
2023-01-05T15:34:06.665Z,96228.66
2023-01-05T15:36:39.204Z,96228.19
2023-01-05T15:39:24.824Z,96227.16
2023-01-05T15:41:52.760Z,96231.66
2023-01-05T15:44:20.949Z,96226.84
2023-01-05T15:46:49.231Z,96229.81
2023-01-05T15:49:20.832Z,96230.63
2023-01-05T15:51:55.199Z,96235.47
2023-01-05T15:54:25.022Z,96240.09
2023-01-05T15:56:51.879Z,96242.91
2023-01-05T15:59:23.363Z,96238.94
2023-01-05T16:01:49.895Z,96251.25
2023-01-05T16:04:16.587Z,96248.06
2023-01-05T16:07:09.280Z,96239.28
2023-01-05T16:09:38.247Z,96241.94
2023-01-05T16:12:09.616Z,96249.06
2023-01-05T16:14:36.103Z,96250.38
2023-01-05T16:17:05.399Z,96258.03
2023-01-05T16:20:10.467Z,96261.63
2023-01-05T16:22:40.330Z,96269.41
2023-01-05T16:25:12.658Z,96259.22
2023-01-05T16:27:40.509Z,96269.84
2023-01-05T16:30:27.586Z,96269.66
2023-01-05T16:32:59.348Z,96264.84
2023-01-05T16:35:44.504Z,96283.09
2023-01-05T16:38:11.020Z,96284.72
2023-01-05T16:40:46.683Z,96285.38
2023-01-05T16:43:33.489Z,96303.94
2023-01-05T16:46:21.213Z,96301.44
2023-01-05T16:48:47.922Z,96304.31
2023-01-05T16:51:16.533Z,96314.72
2023-01-05T16:53:46.638Z,96313.53
2023-01-05T16:56:33.128Z,96318.66
2023-01-05T16:59:04.097Z,96316.38
2023-01-05T17:01:40.298Z,96321.97
2023-01-05T17:04:14.194Z,96330.09
2023-01-05T17:06:41.938Z,96339.28
2023-01-05T17:09:26.205Z,96332.31
2023-01-05T17:11:52.921Z,96333.56
2023-01-05T17:14:20.497Z,96344.47
2023-01-05T17:16:47.152Z,96346.97
2023-01-05T17:19:18.058Z,96350.09
2023-01-05T17:21:52.928Z,96360.66
2023-01-05T17:24:19.404Z,96363.00
2023-01-05T17:26:46.034Z,96366.78
2023-01-05T17:29:22.866Z,96371.19
2023-01-05T17:31:49.621Z,96377.41
2023-01-05T17:34:16.152Z,96377.75
2023-01-05T17:36:42.939Z,96384.31
2023-01-05T17:39:13.846Z,96394.28
2023-01-05T17:41:40.423Z,96386.38
2023-01-05T17:44:06.958Z,96400.53
2023-01-05T17:46:35.628Z,96397.66
2023-01-05T17:49:02.721Z,96399.28
2023-01-05T17:51:29.950Z,96416.50
2023-01-05T17:53:56.975Z,96417.66
2023-01-05T17:56:23.479Z,96418.13
2023-01-05T17:58:50.115Z,96416.38
2023-01-05T18:01:16.757Z,96410.22
2023-01-05T18:03:43.293Z,96419.34
2023-01-05T18:06:10.220Z,96421.84
2023-01-05T18:08:37.249Z,96423.63
2023-01-05T18:11:04.792Z,96429.34
2023-01-05T18:13:31.768Z,96422.97
2023-01-05T18:18:25.969Z,96434.03
2023-01-05T18:20:52.604Z,96430.88
2023-01-05T18:23:20.102Z,96438.97
2023-01-05T18:25:46.628Z,96449.88
2023-01-05T18:28:13.154Z,96452.69
2023-01-05T18:30:42.854Z,96451.25
2023-01-05T18:35:43.357Z,96458.78
2023-01-05T18:38:10.192Z,96458.47
2023-01-05T18:40:36.767Z,96461.94
2023-01-05T18:43:03.457Z,96467.88
2023-01-05T18:45:39.163Z,96478.09
2023-01-05T18:48:06.358Z,96466.13
2023-01-05T18:50:32.836Z,96463.78
2023-01-05T18:52:59.354Z,96474.25
2023-01-05T18:55:25.922Z,96472.50
2023-01-05T18:57:52.489Z,96471.44
2023-01-05T19:00:19.101Z,96481.34
2023-01-05T19:02:45.673Z,96477.88
2023-01-05T19:05:12.191Z,96481.22
2023-01-05T19:07:39.884Z,96476.91
2023-01-05T19:10:06.614Z,96487.50
2023-01-05T19:12:33.195Z,96495.47
2023-01-05T19:14:59.788Z,96486.78
2023-01-05T19:17:26.354Z,96489.31
2023-01-05T19:19:52.991Z,96492.81
2023-01-05T19:22:19.545Z,96491.69
2023-01-05T19:24:46.097Z,96496.06
2023-01-05T19:27:12.615Z,96507.28
2023-01-05T19:29:39.625Z,96499.16
2023-01-05T19:32:06.273Z,96499.72
2023-01-05T19:34:32.798Z,96508.09
2023-01-05T19:36:59.437Z,96517.09
2023-01-05T19:39:27.201Z,96515.06
2023-01-05T19:41:53.728Z,96529.97
2023-01-05T19:44:21.598Z,96528.16
2023-01-05T19:46:53.374Z,96523.00
2023-01-05T19:49:21.549Z,96535.03
2023-01-05T19:51:48.466Z,96535.16
2023-01-05T19:54:15.162Z,96539.81
2023-01-05T19:56:42.328Z,96543.28
2023-01-05T19:59:16.251Z,96541.19
2023-01-05T20:01:43.194Z,96543.13
2023-01-05T20:04:09.892Z,96543.69
2023-01-05T20:06:41.000Z,96550.22
2023-01-05T20:09:10.349Z,96556.09
2023-01-05T20:11:43.266Z,96558.75
2023-01-05T20:14:16.050Z,96552.47
2023-01-05T20:16:43.808Z,96554.88
2023-01-05T20:19:10.853Z,96550.56
2023-01-05T20:21:37.750Z,96550.03
2023-01-05T20:24:06.642Z,96557.88
2023-01-05T20:26:33.473Z,96564.88
2023-01-05T20:29:03.188Z,96571.59
2023-01-05T20:31:31.435Z,96568.38
2023-01-05T20:33:59.474Z,96576.47
2023-01-05T20:36:26.513Z,96570.63
2023-01-05T20:38:53.422Z,96577.03
2023-01-05T20:41:21.750Z,96577.47
2023-01-05T20:43:49.137Z,96592.25
2023-01-05T20:46:16.853Z,96593.50
2023-01-05T20:48:43.732Z,96605.78
2023-01-05T20:51:11.850Z,96602.41
2023-01-05T20:53:38.924Z,96603.81
2023-01-05T20:56:13.067Z,96626.66
2023-01-05T20:58:40.719Z,96627.75
2023-01-05T21:01:10.066Z,96620.63
2023-01-05T21:03:38.479Z,96634.00
2023-01-05T21:06:06.248Z,96639.97
2023-01-05T21:08:33.036Z,96639.00
2023-01-05T21:11:00.404Z,96630.91
2023-01-05T21:13:32.394Z,96632.44
2023-01-05T21:16:04.275Z,96641.50
2023-01-05T21:18:31.958Z,96644.56
2023-01-05T21:20:59.007Z,96639.69
2023-01-05T21:23:26.177Z,96642.34
2023-01-05T21:26:06.525Z,96625.19
2023-01-05T21:28:38.743Z,96653.78
2023-01-05T21:31:06.704Z,96633.53
2023-01-05T21:33:33.463Z,96631.88
2023-01-05T21:35:59.977Z,96636.84
2023-01-05T21:38:26.543Z,96640.06
2023-01-05T21:41:13.085Z,96642.09
2023-01-05T21:43:39.590Z,96647.91
2023-01-05T21:46:11.995Z,96642.44
2023-01-05T21:48:39.142Z,96644.91
2023-01-05T21:51:30.037Z,96654.78
2023-01-05T21:54:15.163Z,96650.19
2023-01-05T21:56:44.491Z,96666.41
2023-01-05T21:59:11.037Z,96647.19
2023-01-05T22:01:38.307Z,96654.41
2023-01-05T22:04:05.454Z,96656.09
2023-01-05T22:06:32.259Z,96658.69
2023-01-05T22:08:58.846Z,96658.91
2023-01-05T22:11:25.361Z,96652.81
2023-01-05T22:13:51.838Z,96659.91
2023-01-05T22:16:18.385Z,96667.13
2023-01-05T22:18:44.987Z,96670.00
2023-01-05T22:21:11.663Z,96673.03
2023-01-05T22:23:38.266Z,96668.13
2023-01-05T22:26:06.302Z,96675.09
2023-01-05T22:28:34.227Z,96677.47
2023-01-05T22:31:08.510Z,96683.28
2023-01-05T22:33:36.401Z,96681.84
2023-01-05T22:36:03.183Z,96680.91
2023-01-05T22:38:30.367Z,96676.44
2023-01-05T22:40:58.022Z,96681.97
2023-01-05T22:43:25.130Z,96683.63
2023-01-05T22:45:52.333Z,96672.97
2023-01-05T22:48:19.401Z,96678.63
2023-01-05T22:50:46.588Z,96672.25
2023-01-05T22:53:13.667Z,96674.88
2023-01-05T22:55:44.141Z,96677.06
2023-01-05T22:58:11.376Z,96671.31
2023-01-05T23:00:37.945Z,96678.41
2023-01-05T23:03:04.480Z,96678.53
2023-01-05T23:05:31.017Z,96680.97
2023-01-05T23:07:57.517Z,96680.00
2023-01-05T23:10:27.611Z,96686.81
2023-01-05T23:12:54.173Z,96682.13
2023-01-05T23:15:20.706Z,96681.38
2023-01-05T23:17:47.248Z,96687.69
2023-01-05T23:20:13.814Z,96681.66
2023-01-05T23:22:40.379Z,96690.66
2023-01-05T23:25:07.036Z,96688.16
2023-01-05T23:27:33.492Z,96679.66
2023-01-05T23:30:00.039Z,96687.34
2023-01-05T23:32:26.545Z,96682.19
2023-01-05T23:34:53.087Z,96693.69
2023-01-05T23:37:19.626Z,96696.00
2023-01-05T23:39:46.124Z,96705.97
2023-01-05T23:42:32.617Z,96714.63
2023-01-05T23:44:59.126Z,96716.31
2023-01-05T23:47:25.671Z,96722.41
2023-01-05T23:49:52.230Z,96719.38
2023-01-05T23:52:18.752Z,96719.66
2023-01-05T23:54:45.292Z,96721.06
2023-01-05T23:57:11.790Z,96724.44
2023-01-05T23:59:38.359Z,96714.44
